Time;durP1;ratioP1;P1;durP2;ratioP2;P2;SDS_P1;SDS_P2;PMS_P1;PMS_P2;Temp;Humidity;BMP_temperature;BMP_pressure;BME280_temperature;BME280_humidity;BME280_pressure;Samples;Min_cycle;Max_cycle;Signal;HPM_P1;HPM_P2
2023/06/24 00:01:13;;;;;;;2.17;1.80;;;22.30;60.80;21.60;97330.00;;;;4991568;28;20209;-87
2023/06/24 00:03:48;;;;;;;1.97;1.87;;;22.30;60.90;21.60;97334.00;;;;4974922;28;20201;-87
2023/06/24 00:06:18;;;;;;;2.10;1.90;;;22.20;61.10;21.60;97330.00;;;;4988505;28;20209;-87
2023/06/24 00:08:45;;;;;;;2.50;2.30;;;22.20;61.10;21.60;97334.00;;;;4994717;28;20401;-87
2023/06/24 00:11:13;;;;;;;1.90;1.80;;;22.20;61.20;21.60;97335.00;;;;5001884;28;20214;-86
2023/06/24 00:13:41;;;;;;;2.53;2.33;;;22.20;61.30;21.60;97336.00;;;;5005338;28;20269;-87
2023/06/24 00:16:11;;;;;;;3.07;2.20;;;22.20;61.40;21.60;97331.00;;;;5003473;28;20198;-86
2023/06/24 00:18:41;;;;;;;2.43;2.30;;;22.20;61.40;21.60;97334.00;;;;4989410;28;20306;-87
2023/06/24 00:21:10;;;;;;;2.40;2.20;;;22.20;61.40;21.60;97331.00;;;;5001634;28;20202;-87
2023/06/24 00:23:37;;;;;;;2.43;1.93;;;22.20;61.60;21.50;97332.00;;;;4994512;28;20207;-87
2023/06/24 00:26:05;;;;;;;2.43;2.23;;;22.20;61.60;21.50;97334.00;;;;4999731;28;20289;-87
2023/06/24 00:28:32;;;;;;;2.37;2.17;;;22.20;62.50;21.50;97331.00;;;;5010758;28;20209;-87
2023/06/24 00:31:00;;;;;;;1.90;1.80;;;22.10;61.70;21.50;97342.00;;;;5001352;28;20202;-87
2023/06/24 00:33:28;;;;;;;2.20;2.10;;;22.10;61.70;21.50;97333.00;;;;4994745;28;20452;-87
2023/06/24 00:35:56;;;;;;;3.27;1.93;;;22.10;61.90;21.50;97331.00;;;;5001236;28;20194;-87
2023/06/24 00:38:25;;;;;;;2.17;1.90;;;22.10;62.10;21.50;97327.00;;;;5003972;28;20214;-87
2023/06/24 00:40:53;;;;;;;2.70;2.50;;;22.10;62.20;21.50;97328.00;;;;5001288;28;20285;-87
2023/06/24 00:43:20;;;;;;;2.10;2.00;;;22.10;62.30;21.50;97325.00;;;;5004992;28;20205;-87
2023/06/24 00:45:48;;;;;;;2.50;2.30;;;22.10;62.90;21.50;97330.00;;;;5005491;28;20638;-86
2023/06/24 00:48:16;;;;;;;2.63;2.40;;;22.10;62.40;21.50;97323.00;;;;5029820;28;20292;-86
2023/06/24 00:50:45;;;;;;;2.50;2.30;;;22.10;62.50;21.40;97323.00;;;;5012086;28;20194;-87
2023/06/24 00:53:13;;;;;;;2.37;2.17;;;22.10;62.50;21.40;97324.00;;;;5015220;28;20225;-86
2023/06/24 00:55:41;;;;;;;2.60;2.40;;;22.00;62.50;21.40;97319.00;;;;5005583;28;20198;-87
2023/06/24 00:58:09;;;;;;;2.60;2.40;;;22.00;62.60;21.40;97318.00;;;;5005945;28;20231;-87
2023/06/24 01:00:37;;;;;;;2.80;2.50;;;22.00;62.70;21.40;97322.00;;;;5000718;28;20198;-87
2023/06/24 01:03:05;;;;;;;2.97;2.77;;;22.00;62.80;21.40;97323.00;;;;4995176;28;20211;-86
2023/06/24 01:05:35;;;;;;;2.37;2.27;;;22.00;62.80;21.40;97311.00;;;;4998300;28;20974;-86
2023/06/24 01:08:04;;;;;;;2.87;2.60;;;22.00;62.80;21.40;97309.00;;;;4993815;28;20789;-86
2023/06/24 01:10:32;;;;;;;3.03;2.83;;;22.00;63.00;21.40;97310.00;;;;4998275;28;20206;-87
2023/06/24 01:13:01;;;;;;;2.73;2.53;;;22.00;63.10;21.40;97305.00;;;;4995059;28;20230;-87
2023/06/24 01:15:29;;;;;;;2.73;2.53;;;22.00;63.10;21.40;97314.00;;;;4994851;28;20207;-86
2023/06/24 01:18:08;;;;;;;2.57;2.37;;;22.00;63.00;21.40;97313.00;;;;4994419;28;20252;-87
2023/06/24 01:20:46;;;;;;;2.97;2.77;;;22.00;63.10;21.40;97317.00;;;;4994901;28;20257;-88
2023/06/24 01:23:48;;;;;;;9.90;2.80;;;22.00;63.20;21.40;97312.00;;;;5006677;28;20203;-87
2023/06/24 01:26:41;;;;;;;2.27;2.10;;;22.00;63.20;21.40;97308.00;;;;4999620;28;20205;-87
2023/06/24 01:29:51;;;;;;;2.27;2.13;;;22.00;63.10;21.40;97301.00;;;;4999353;28;20229;-87
2023/06/24 01:32:28;;;;;;;2.30;2.10;;;22.00;63.30;21.40;97295.00;;;;5003729;28;20233;-87
2023/06/24 01:35:01;;;;;;;2.67;2.47;;;22.00;63.10;21.40;97302.00;;;;5001497;28;20207;-87
2023/06/24 01:37:37;;;;;;;2.60;2.40;;;22.00;63.10;21.40;97299.00;;;;5002277;28;20703;-87
2023/06/24 01:40:13;;;;;;;2.30;2.10;;;22.00;63.10;21.40;97298.00;;;;5002256;28;20208;-87
2023/06/24 01:42:45;;;;;;;2.50;2.30;;;22.00;63.30;21.40;97296.00;;;;4995831;28;20552;-87
2023/06/24 01:45:17;;;;;;;3.10;2.60;;;22.00;63.20;21.40;97292.00;;;;5003190;28;20217;-87
2023/06/24 01:47:49;;;;;;;2.90;2.70;;;22.00;63.40;21.40;97290.00;;;;5007616;28;20220;-86
2023/06/24 01:50:22;;;;;;;2.50;2.30;;;22.00;63.60;21.40;97294.00;;;;5001467;28;20209;-87
2023/06/24 01:52:55;;;;;;;3.37;2.77;;;22.00;63.50;21.40;97293.00;;;;4997206;28;20223;-87
2023/06/24 01:55:25;;;;;;;2.57;2.37;;;22.00;63.50;21.30;97289.00;;;;4994761;28;20201;-86
2023/06/24 01:57:55;;;;;;;2.47;2.27;;;22.00;63.40;21.40;97293.00;;;;5001856;28;20229;-86
2023/06/24 02:00:25;;;;;;;2.60;2.40;;;22.00;63.50;21.40;97294.00;;;;5008658;28;20679;-86
2023/06/24 02:02:55;;;;;;;2.53;2.07;;;22.00;63.60;21.40;97283.00;;;;4998387;28;20198;-86
2023/06/24 02:05:25;;;;;;;2.57;2.37;;;22.00;63.70;21.30;97284.00;;;;5008922;28;20206;-87
2023/06/24 02:07:54;;;;;;;2.60;2.40;;;22.00;63.60;21.30;97282.00;;;;5001233;28;20218;-87
2023/06/24 02:10:24;;;;;;;2.80;2.43;;;22.00;63.40;21.30;97283.00;;;;4994019;28;20566;-87
2023/06/24 02:12:54;;;;;;;2.10;2.00;;;22.00;63.50;21.30;97281.00;;;;4994079;28;20226;-87
2023/06/24 02:15:23;;;;;;;2.33;2.17;;;22.00;63.50;21.30;97282.00;;;;5012652;28;20202;-87
2023/06/24 02:17:56;;;;;;;2.80;2.60;;;22.00;63.50;21.30;97277.00;;;;4990291;28;20313;-87
2023/06/24 02:20:28;;;;;;;2.37;2.17;;;22.00;63.50;21.30;97281.00;;;;5001855;28;20246;-87
2023/06/24 02:22:57;;;;;;;10.90;2.83;;;21.90;63.40;21.30;97290.00;;;;4993925;28;20202;-87
2023/06/24 02:25:26;;;;;;;2.27;2.13;;;21.90;63.40;21.30;97290.00;;;;4995337;28;20312;-87
2023/06/24 02:27:56;;;;;;;3.20;2.60;;;21.90;63.40;21.30;97286.00;;;;5012726;28;20224;-87
2023/06/24 02:30:26;;;;;;;2.70;2.50;;;21.90;63.50;21.30;97288.00;;;;5004733;28;20202;-86
2023/06/24 02:32:56;;;;;;;2.97;2.70;;;21.90;63.40;21.20;97290.00;;;;5000957;28;20325;-87
2023/06/24 02:35:23;;;;;;;2.60;2.40;;;21.90;63.50;21.20;97292.00;;;;5004913;28;20225;-87
2023/06/24 02:37:53;;;;;;;2.90;2.70;;;21.90;63.50;21.20;97298.00;;;;5001033;28;20626;-87
2023/06/24 02:40:21;;;;;;;2.50;2.30;;;21.90;63.50;21.20;97298.00;;;;4975690;28;20205;-86
2023/06/24 02:42:48;;;;;;;2.40;2.20;;;21.80;63.60;21.20;97298.00;;;;4995941;28;20202;-87
2023/06/24 02:45:18;;;;;;;2.47;2.27;;;21.80;63.50;21.20;97305.00;;;;4991195;28;20198;-86
2023/06/24 02:47:48;;;;;;;2.33;2.13;;;21.80;63.60;21.20;97305.00;;;;4999937;28;20271;-87
2023/06/24 02:50:18;;;;;;;2.60;2.43;;;21.80;63.60;21.20;97307.00;;;;4998392;28;20217;-86
2023/06/24 02:52:48;;;;;;;2.53;2.27;;;21.80;63.60;21.20;97301.00;;;;4997006;28;20197;-86
2023/06/24 02:55:16;;;;;;;2.83;2.63;;;21.80;63.70;21.10;97309.00;;;;4998691;28;20226;-87
2023/06/24 02:57:44;;;;;;;2.37;2.17;;;21.80;63.70;21.10;97308.00;;;;4995231;28;20225;-86
2023/06/24 03:00:14;;;;;;;3.40;2.33;;;21.80;64.40;21.10;97312.00;;;;5006954;28;20565;-87
2023/06/24 03:02:44;;;;;;;2.83;2.37;;;21.80;63.90;21.10;97317.00;;;;4999481;28;20208;-87
2023/06/24 03:05:12;;;;;;;3.20;3.00;;;21.80;64.00;21.10;97324.00;;;;5002604;28;20280;-87
2023/06/24 03:10:22;;;;;;;2.77;2.57;;;21.80;64.30;21.10;97333.00;;;;4990477;28;20625;-87
2023/06/24 03:12:49;;;;;;;3.20;3.00;;;21.80;64.00;21.10;97332.00;;;;4992390;28;20195;-86
2023/06/24 03:15:16;;;;;;;2.40;2.20;;;21.70;63.90;21.10;97330.00;;;;4973791;28;20219;-87
2023/06/24 03:17:43;;;;;;;3.53;2.60;;;21.70;64.00;21.10;97335.00;;;;4969928;28;20234;-87
2023/06/24 03:20:12;;;;;;;3.30;3.00;;;21.70;64.00;21.10;97341.00;;;;4973870;28;20295;-87
2023/06/24 03:22:39;;;;;;;3.00;2.80;;;21.70;64.20;21.10;97344.00;;;;5008870;28;20613;-87
2023/06/24 03:25:06;;;;;;;3.13;2.30;;;21.70;64.20;21.10;97345.00;;;;4985987;28;20203;-87
2023/06/24 03:27:36;;;;;;;2.70;2.23;;;21.70;64.30;21.10;97350.00;;;;4972068;28;20297;-86
2023/06/24 03:30:04;;;;;;;2.53;2.33;;;21.70;64.30;21.10;97354.00;;;;4980031;28;20579;-87
2023/06/24 03:32:36;;;;;;;2.77;2.53;;;21.70;64.30;21.10;97354.00;;;;4973172;28;20199;-86
2023/06/24 03:35:04;;;;;;;2.77;2.57;;;21.70;64.30;21.10;97357.00;;;;4987463;28;20226;-85
2023/06/24 03:37:31;;;;;;;2.67;2.47;;;21.70;64.40;21.10;97354.00;;;;4994028;28;20680;-87
2023/06/24 03:39:58;;;;;;;2.50;2.30;;;21.70;64.30;21.10;97349.00;;;;4991873;28;20721;-86
2023/06/24 03:42:25;;;;;;;2.43;2.23;;;21.70;64.40;21.10;97351.00;;;;4974367;28;20202;-87
2023/06/24 03:44:54;;;;;;;2.23;2.13;;;21.70;64.50;21.10;97360.00;;;;4997756;28;20197;-87
2023/06/24 03:47:21;;;;;;;2.57;2.37;;;21.70;64.50;21.10;97363.00;;;;5008760;28;20571;-86
2023/06/24 03:49:48;;;;;;;2.97;2.77;;;21.70;64.60;21.10;97366.00;;;;5008880;28;20250;-86
2023/06/24 03:52:15;;;;;;;2.70;2.50;;;21.70;64.60;21.10;97357.00;;;;4991269;28;20241;-86
2023/06/24 03:54:42;;;;;;;3.23;2.57;;;21.70;64.70;21.10;97358.00;;;;4989715;28;20285;-86
2023/06/24 03:57:10;;;;;;;2.33;2.20;;;21.70;64.70;21.10;97358.00;;;;4989372;28;20223;-86
2023/06/24 03:59:37;;;;;;;2.70;2.50;;;21.70;64.70;21.10;97359.00;;;;4990249;28;20743;-86
2023/06/24 04:02:07;;;;;;;2.90;2.70;;;21.70;64.70;21.10;97352.00;;;;4995913;28;20233;-86
2023/06/24 04:04:35;;;;;;;2.70;2.50;;;21.70;64.60;21.10;97352.00;;;;4995853;28;20187;-86
2023/06/24 04:07:02;;;;;;;2.53;2.20;;;21.70;64.50;21.10;97354.00;;;;4995884;28;20627;-87
2023/06/24 04:09:30;;;;;;;2.90;2.50;;;21.70;64.60;21.10;97360.00;;;;4989673;28;20225;-87
2023/06/24 04:11:58;;;;;;;2.60;2.40;;;21.80;64.80;21.20;97357.00;;;;4995441;28;20198;-87
2023/06/24 04:14:25;;;;;;;2.83;2.63;;;21.80;64.70;21.20;97354.00;;;;4995402;28;20218;-86
2023/06/24 04:16:52;;;;;;;2.63;2.43;;;21.80;64.80;21.20;97353.00;;;;4995209;28;20222;-86
2023/06/24 04:19:21;;;;;;;2.67;2.47;;;21.80;64.70;21.20;97350.00;;;;4994069;28;20258;-86
2023/06/24 04:21:48;;;;;;;3.73;2.40;;;21.80;64.70;21.20;97346.00;;;;4988547;28;20199;-86
2023/06/24 04:24:15;;;;;;;2.50;2.30;;;21.80;64.70;21.20;97342.00;;;;4987239;28;20246;-86
2023/06/24 04:26:43;;;;;;;2.47;2.27;;;21.80;64.70;21.20;97349.00;;;;4994890;28;20816;-87
2023/06/24 04:29:10;;;;;;;2.43;2.23;;;21.80;64.70;21.30;97358.00;;;;4987114;28;20242;-87
2023/06/24 04:31:37;;;;;;;3.50;2.67;;;21.80;65.30;21.30;97360.00;;;;4999122;28;20206;-86
2023/06/24 04:34:05;;;;;;;2.63;2.43;;;21.80;64.60;21.30;97360.00;;;;4995133;28;20280;-86
2023/06/24 04:36:35;;;;;;;2.57;2.37;;;21.80;64.70;21.30;97364.00;;;;4994163;28;20285;-86
2023/06/24 04:39:02;;;;;;;3.00;2.70;;;21.90;64.60;21.30;97360.00;;;;4993469;28;20313;-86
2023/06/24 04:41:29;;;;;;;2.50;2.27;;;21.90;64.40;21.30;97358.00;;;;4991161;28;20224;-86
2023/06/24 04:43:56;;;;;;;2.57;2.37;;;21.90;64.60;21.30;97368.00;;;;4972967;28;20195;-86
2023/06/24 04:46:23;;;;;;;2.73;2.53;;;21.90;64.60;21.30;97371.00;;;;4973526;28;20287;-86
2023/06/24 04:48:51;;;;;;;2.63;2.43;;;21.90;64.50;21.40;97378.00;;;;4994875;28;20261;-86
2023/06/24 04:51:18;;;;;;;2.67;2.47;;;21.90;64.40;21.40;97379.00;;;;5000675;28;20209;-87
2023/06/24 04:53:46;;;;;;;3.60;2.57;;;21.90;64.30;21.40;97377.00;;;;4992961;28;20219;-87
2023/06/24 04:56:14;;;;;;;2.87;2.67;;;22.00;64.50;21.40;97384.00;;;;4985291;28;20253;-87
2023/06/24 04:58:41;;;;;;;2.80;2.60;;;22.00;64.60;21.40;97388.00;;;;4995539;28;20219;-86
2023/06/24 05:01:08;;;;;;;2.63;2.40;;;22.00;64.60;21.50;97381.00;;;;4995401;28;20761;-86
2023/06/24 05:03:35;;;;;;;5.53;2.80;;;22.00;64.40;21.50;97390.00;;;;5006713;28;20688;-86
2023/06/24 05:06:02;;;;;;;2.13;1.97;;;22.00;64.40;21.50;97388.00;;;;4999578;28;20234;-86
2023/06/24 05:08:29;;;;;;;2.53;2.33;;;22.10;64.40;21.50;97391.00;;;;4994411;28;20301;-86
2023/06/24 05:10:58;;;;;;;2.67;2.47;;;22.10;64.50;21.50;97390.00;;;;4994482;28;20624;-86
2023/06/24 05:13:27;;;;;;;2.23;2.13;;;22.10;64.50;21.60;97399.00;;;;4994167;28;20207;-87
2023/06/24 05:15:54;;;;;;;2.10;2.00;;;22.10;64.50;21.60;97392.00;;;;4994942;28;20230;-87
2023/06/24 05:18:21;;;;;;;3.10;2.80;;;22.20;64.50;21.70;97393.00;;;;5013899;28;20297;-86
2023/06/24 05:20:48;;;;;;;3.03;2.30;;;22.20;64.30;21.70;97395.00;;;;5009004;28;20330;-86
2023/06/24 05:23:15;;;;;;;2.70;2.50;;;22.20;64.30;21.70;97392.00;;;;4993917;28;20257;-86
2023/06/24 05:25:42;;;;;;;2.43;2.23;;;22.20;64.40;21.80;97388.00;;;;4975112;28;20644;-86
2023/06/24 05:28:11;;;;;;;2.93;2.50;;;22.30;65.00;21.80;97398.00;;;;4990739;28;20293;-86
2023/06/24 05:30:38;;;;;;;2.53;2.30;;;22.30;63.80;21.80;97393.00;;;;4986352;28;20238;-85
2023/06/24 05:33:05;;;;;;;3.03;2.83;;;22.30;63.80;21.80;97390.00;;;;4994029;28;20211;-85
2023/06/24 05:35:33;;;;;;;3.20;2.27;;;22.40;63.70;21.90;97400.00;;;;4992314;28;20261;-85
2023/06/24 05:38:00;;;;;;;2.17;1.77;;;22.40;63.60;21.90;97400.00;;;;4992014;28;20229;-85
2023/06/24 05:40:27;;;;;;;2.10;2.00;;;22.40;63.60;21.90;97399.00;;;;4990663;28;20218;-86
2023/06/24 05:42:54;;;;;;;1.97;1.87;;;22.50;63.50;22.00;97404.00;;;;4990897;28;20266;-86
2023/06/24 05:45:23;;;;;;;3.50;2.63;;;22.50;63.20;22.00;97399.00;;;;4990769;28;20210;-85
2023/06/24 05:47:50;;;;;;;2.87;2.67;;;22.50;63.20;22.10;97404.00;;;;4990254;28;20199;-86
2023/06/24 05:50:17;;;;;;;2.50;2.30;;;22.60;62.90;22.10;97402.00;;;;4990279;28;20634;-89
2023/06/24 05:52:44;;;;;;;2.67;2.23;;;22.60;62.60;22.10;97409.00;;;;4989139;28;20290;-89
2023/06/24 05:55:13;;;;;;;2.43;2.20;;;22.60;62.60;22.20;97417.00;;;;4998046;28;20305;-89
2023/06/24 05:57:40;;;;;;;2.53;2.20;;;22.70;62.40;22.20;97411.00;;;;4990499;28;20265;-90
2023/06/24 06:00:10;;;;;;;2.30;2.13;;;22.70;62.50;22.30;97421.00;;;;4993403;28;20256;-90
2023/06/24 06:02:39;;;;;;;2.80;2.43;;;22.70;62.80;22.30;97416.00;;;;4992393;28;20230;-90
2023/06/24 06:05:09;;;;;;;2.60;2.40;;;22.80;62.60;22.30;97417.00;;;;4995585;28;20211;-93
2023/06/24 06:07:38;;;;;;;2.73;2.40;;;22.80;62.60;22.40;97417.00;;;;4993160;28;20301;-90
2023/06/24 06:10:09;;;;;;;2.37;2.20;;;22.80;62.50;22.40;97416.00;;;;4990468;28;20282;-90
2023/06/24 06:12:36;;;;;;;2.33;2.13;;;22.90;62.20;22.50;97410.00;;;;4992758;28;20213;-89
2023/06/24 06:15:04;;;;;;;2.30;2.10;;;23.00;62.10;22.50;97406.00;;;;4994411;28;20657;-91
2023/06/24 06:17:33;;;;;;;2.20;2.00;;;23.00;62.00;22.50;97403.00;;;;5000871;28;20575;-86
2023/06/24 06:20:04;;;;;;;2.20;2.10;;;23.00;62.00;22.60;97410.00;;;;4999944;28;20916;-86
2023/06/24 06:22:32;;;;;;;2.63;1.93;;;23.10;61.70;22.70;97410.00;;;;4993315;28;20238;-84
2023/06/24 06:24:59;;;;;;;2.10;1.93;;;23.10;61.60;22.70;97410.00;;;;4992458;28;20203;-87
2023/06/24 06:27:26;;;;;;;2.03;1.90;;;23.20;61.10;22.70;97412.00;;;;4998611;28;20290;-86
2023/06/24 06:29:53;;;;;;;2.27;2.00;;;23.20;61.00;22.80;97415.00;;;;4986345;28;20268;-87
2023/06/24 06:32:20;;;;;;;2.03;1.93;;;23.20;61.10;22.80;97416.00;;;;5000172;28;20238;-87
2023/06/24 06:34:47;;;;;;;1.73;1.63;;;23.30;61.30;22.90;97414.00;;;;4988340;28;20260;-84
2023/06/24 06:37:16;;;;;;;2.00;1.90;;;23.30;60.90;22.90;97421.00;;;;4988907;28;20736;-84
2023/06/24 06:39:43;;;;;;;1.90;1.80;;;23.40;60.90;22.90;97410.00;;;;4982508;28;20274;-88
2023/06/24 06:42:10;;;;;;;2.40;2.20;;;23.40;61.40;23.00;97412.00;;;;4992718;28;20200;-85
2023/06/24 06:44:37;;;;;;;2.43;2.30;;;23.50;60.20;23.00;97413.00;;;;4991006;28;20205;-86
2023/06/24 06:47:08;;;;;;;2.17;2.07;;;23.50;60.00;23.10;97418.00;;;;4992031;28;20819;-86
2023/06/24 06:49:38;;;;;;;2.30;2.10;;;23.50;60.20;23.10;97420.00;;;;4985892;28;20240;-85
2023/06/24 06:52:06;;;;;;;1.90;1.80;;;23.60;60.10;23.10;97427.00;;;;4993986;28;20583;-85
2023/06/24 06:54:35;;;;;;;2.20;2.10;;;23.60;60.00;23.20;97426.00;;;;4994705;28;20314;-87
2023/06/24 06:57:03;;;;;;;2.10;1.90;;;23.60;60.30;23.20;97421.00;;;;4988689;28;20228;-87
2023/06/24 06:59:30;;;;;;;2.00;1.90;;;23.70;59.90;23.30;97418.00;;;;4991969;28;20215;-88
2023/06/24 07:01:58;;;;;;;2.00;1.90;;;23.70;59.50;23.30;97422.00;;;;4993551;28;20203;-86
2023/06/24 07:04:25;;;;;;;2.27;2.07;;;23.70;59.40;23.30;97413.00;;;;5001356;28;20262;-89
2023/06/24 07:06:53;;;;;;;2.13;1.93;;;23.70;59.20;23.30;97421.00;;;;4993803;28;20289;-88
2023/06/24 07:09:21;;;;;;;1.67;1.57;;;23.80;59.20;23.40;97426.00;;;;4991252;28;20248;-90
2023/06/24 07:11:50;;;;;;;2.03;1.93;;;23.80;58.90;23.40;97425.00;;;;4990526;28;20206;-90
2023/06/24 07:14:17;;;;;;;1.83;1.73;;;23.90;59.10;23.40;97424.00;;;;5000136;23;20252;-85
2023/06/24 07:16:44;;;;;;;1.90;1.80;;;23.80;59.00;23.40;97420.00;;;;4986301;28;20256;-87
2023/06/24 07:19:12;;;;;;;1.90;1.80;;;23.90;59.10;23.40;97425.00;;;;4989206;28;20227;-88
2023/06/24 07:21:39;;;;;;;1.83;1.73;;;23.90;59.00;23.40;97425.00;;;;4990718;28;20278;-88
2023/06/24 07:24:09;;;;;;;1.90;1.80;;;23.90;59.00;23.50;97422.00;;;;4990499;28;20211;-88
2023/06/24 07:26:37;;;;;;;2.00;1.90;;;23.90;58.70;23.50;97424.00;;;;4984161;28;20196;-88
2023/06/24 07:29:08;;;;;;;1.93;1.83;;;24.00;59.10;23.60;97427.00;;;;4992438;28;20262;-88
2023/06/24 07:31:35;;;;;;;1.80;1.70;;;24.00;59.20;23.60;97431.00;;;;4986826;28;20588;-88
2023/06/24 07:34:02;;;;;;;2.07;1.97;;;24.00;58.90;23.70;97427.00;;;;4988771;28;20648;-88
2023/06/24 07:36:29;;;;;;;1.67;1.57;;;24.10;58.40;23.70;97428.00;;;;4987510;28;20296;-88
2023/06/24 07:39:03;;;;;;;1.67;1.57;;;24.10;58.00;23.70;97429.00;;;;4988127;28;20224;-88
2023/06/24 07:41:30;;;;;;;2.10;1.70;;;24.10;57.80;23.70;97426.00;;;;4991127;28;20213;-87
2023/06/24 07:43:57;;;;;;;1.80;1.70;;;24.10;57.60;23.70;97421.00;;;;4991211;28;20975;-87
2023/06/24 07:46:26;;;;;;;1.70;1.60;;;24.10;57.40;23.70;97420.00;;;;4990713;28;20201;-88
2023/06/24 07:49:09;;;;;;;1.97;1.77;;;24.20;57.50;23.60;97427.00;;;;4990950;28;20226;-87
2023/06/24 07:51:36;;;;;;;2.33;1.70;;;24.10;57.30;23.60;97427.00;;;;4990431;28;20213;-88
2023/06/24 07:54:03;;;;;;;2.00;1.90;;;24.10;57.60;23.70;97432.00;;;;4991598;28;20260;-88
2023/06/24 07:56:31;;;;;;;2.13;1.93;;;24.10;57.50;23.70;97424.00;;;;4990111;28;20283;-88
2023/06/24 07:58:58;;;;;;;1.90;1.80;;;24.20;57.70;23.80;97428.00;;;;4987425;28;20232;-87
2023/06/24 08:01:26;;;;;;;1.60;1.50;;;24.20;57.90;23.90;97435.00;;;;4991607;28;20658;-89
2023/06/24 08:03:53;;;;;;;2.10;1.70;;;24.30;57.70;24.00;97432.00;;;;4992260;28;20202;-89
2023/06/24 08:06:21;;;;;;;2.00;1.90;;;24.40;57.60;24.10;97434.00;;;;4992187;28;20257;-89
2023/06/24 08:08:55;;;;;;;2.00;1.90;;;24.40;57.60;24.20;97437.00;;;;4991662;28;20334;-88
2023/06/24 08:11:23;;;;;;;1.80;1.70;;;24.50;57.50;24.30;97430.00;;;;4991153;28;20209;-88
2023/06/24 08:13:50;;;;;;;1.30;1.27;;;24.60;56.80;24.40;97430.00;;;;4993815;28;20282;-88
2023/06/24 08:16:18;;;;;;;1.43;1.33;;;24.70;55.80;24.50;97432.00;;;;4989319;28;20230;-87
2023/06/24 08:18:47;;;;;;;1.50;1.40;;;24.80;55.90;24.60;97433.00;;;;4991097;28;20298;-87
2023/06/24 08:21:14;;;;;;;1.50;1.40;;;24.90;55.30;24.70;97442.00;;;;4991910;28;20203;-86
2023/06/24 08:23:41;;;;;;;2.07;1.43;;;25.00;55.20;24.80;97442.00;;;;4996892;28;20237;-86
2023/06/24 08:26:09;;;;;;;1.57;1.20;;;25.10;54.70;24.90;97428.00;;;;4991823;28;20559;-86
2023/06/24 08:28:36;;;;;;;1.50;1.40;;;25.20;54.40;25.00;97423.00;;;;4984885;28;20296;-86
2023/06/24 08:31:04;;;;;;;1.90;1.70;;;25.30;54.70;25.10;97425.00;;;;4991547;28;20229;-89
2023/06/24 08:33:31;;;;;;;1.77;1.50;;;25.40;54.60;25.10;97432.00;;;;4989828;28;20206;-87
2023/06/24 08:36:00;;;;;;;1.80;1.70;;;25.50;54.50;25.20;97430.00;;;;4985064;28;20923;-86
2023/06/24 08:38:28;;;;;;;2.00;1.90;;;25.50;54.10;25.20;97425.00;;;;4991141;28;20676;-86
2023/06/24 08:40:56;;;;;;;1.80;1.70;;;25.60;54.00;25.20;97423.00;;;;4998105;28;20205;-85
2023/06/24 08:43:24;;;;;;;1.93;1.83;;;25.60;54.40;25.30;97421.00;;;;4999302;28;20239;-86
2023/06/24 08:45:51;;;;;;;2.00;1.90;;;25.70;54.50;25.40;97423.00;;;;4999958;28;20206;-86
2023/06/24 08:48:22;;;;;;;2.47;2.27;;;25.80;54.80;25.50;97413.00;;;;5006288;28;20219;-85
2023/06/24 08:50:57;;;;;;;2.37;2.17;;;25.80;53.90;25.70;97423.00;;;;5008622;28;20207;-84
2023/06/24 08:53:29;;;;;;;2.17;2.07;;;26.00;54.00;25.80;97421.00;;;;5008510;28;20199;-85
2023/06/24 08:55:59;;;;;;;2.13;2.03;;;26.10;54.00;25.90;97420.00;;;;5001188;28;20249;-85
2023/06/24 08:58:28;;;;;;;1.80;1.70;;;26.20;53.80;26.10;97416.00;;;;4995326;28;20211;-86
2023/06/24 09:00:56;;;;;;;2.00;1.90;;;26.30;54.10;26.30;97419.00;;;;4993049;28;20210;-87
2023/06/24 09:03:23;;;;;;;2.10;2.00;;;26.50;53.90;26.50;97424.00;;;;4997968;28;20195;-86
2023/06/24 09:05:52;;;;;;;1.93;1.73;;;26.70;52.80;26.60;97428.00;;;;4997399;28;20230;-86
2023/06/24 09:08:24;;;;;;;1.90;1.80;;;26.80;52.20;26.70;97427.00;;;;4989339;28;20722;-86
2023/06/24 09:10:56;;;;;;;2.37;2.00;;;26.90;52.00;26.80;97434.00;;;;4998086;28;20198;-88
2023/06/24 09:13:35;;;;;;;2.40;2.30;;;27.10;51.70;26.80;97425.00;;;;4996824;28;20233;-88
2023/06/24 09:16:15;;;;;;;2.20;2.00;;;27.10;50.90;26.90;97422.00;;;;4993996;28;20202;-85
2023/06/24 09:18:48;;;;;;;2.80;1.93;;;27.20;51.00;27.10;97421.00;;;;4996235;28;20950;-85
2023/06/24 09:21:15;;;;;;;2.30;2.10;;;27.30;51.30;27.20;97421.00;;;;4996724;28;20253;-86
2023/06/24 09:23:48;;;;;;;1.98;1.77;;;27.40;51.10;27.30;97423.00;;;;4989334;28;20195;-86
2023/06/24 09:26:18;;;;;;;2.25;1.90;;;27.60;51.10;27.50;97421.00;;;;4995646;28;20202;-85
2023/06/24 09:28:51;;;;;;;1.60;1.50;;;27.70;51.10;27.60;97419.00;;;;4992958;28;20214;-85
2023/06/24 09:31:19;;;;;;;2.50;2.30;;;27.80;50.60;27.70;97413.00;;;;4994476;28;20203;-85
2023/06/24 09:33:48;;;;;;;2.53;2.20;;;28.00;50.50;27.80;97425.00;;;;4995368;28;20293;-87
2023/06/24 09:36:21;;;;;;;1.83;1.73;;;27.40;49.80;27.90;97427.00;;;;4995679;28;20245;-87
2023/06/24 09:38:49;;;;;;;2.30;2.20;;;28.20;50.30;28.00;97429.00;;;;4997665;28;20285;-88
2023/06/24 09:41:20;;;;;;;2.08;1.80;;;28.30;49.40;27.90;97427.00;;;;4999719;28;20195;-89
2023/06/24 09:43:51;;;;;;;1.80;1.70;;;28.30;49.20;27.90;97420.00;;;;4996985;28;20476;-87
2023/06/24 09:46:21;;;;;;;2.05;1.95;;;28.30;48.90;27.90;97425.00;;;;4996122;28;20241;-82
2023/06/24 09:48:49;;;;;;;2.08;1.88;;;28.30;48.50;27.90;97415.00;;;;4998381;28;20762;-85
2023/06/24 09:51:18;;;;;;;2.25;1.92;;;28.30;48.90;27.90;97412.00;;;;4997167;28;20651;-85
2023/06/24 09:53:46;;;;;;;1.88;1.77;;;28.30;49.20;28.00;97411.00;;;;4996503;28;20298;-85
2023/06/24 09:56:19;;;;;;;1.98;1.88;;;28.40;50.00;28.20;97405.00;;;;4980549;28;20223;-85
2023/06/24 09:58:48;;;;;;;1.67;1.58;;;28.60;49.50;28.30;97401.00;;;;4981533;28;20231;-85
2023/06/24 10:01:16;;;;;;;1.60;1.50;;;28.80;49.70;28.60;97407.00;;;;4991765;28;20211;-86
2023/06/24 10:03:43;;;;;;;1.30;1.20;;;29.10;49.50;28.80;97410.00;;;;4990246;28;20259;-88
2023/06/24 10:06:11;;;;;;;7.65;2.00;;;29.40;49.10;29.00;97396.00;;;;4983566;28;20199;-88
2023/06/24 10:08:38;;;;;;;1.70;1.60;;;29.70;48.10;29.20;97398.00;;;;4992291;28;20273;-87
2023/06/24 10:11:05;;;;;;;1.50;1.40;;;30.10;47.60;29.40;97395.00;;;;4995173;28;20214;-87
2023/06/24 10:13:35;;;;;;;1.52;1.42;;;30.40;47.40;29.70;97397.00;;;;4992880;28;20210;-87
2023/06/24 10:16:02;;;;;;;1.50;1.40;;;30.70;46.90;29.90;97398.00;;;;4992665;28;20288;-88
2023/06/24 10:18:34;;;;;;;2.80;1.45;;;31.00;46.50;30.10;97392.00;;;;4987114;28;20222;-87
2023/06/24 10:21:02;;;;;;;1.60;1.50;;;31.30;44.70;30.30;97391.00;;;;4991220;28;20594;-86
2023/06/24 10:23:34;;;;;;;1.40;1.30;;;31.40;44.40;30.30;97394.00;;;;4991692;28;20672;-87
2023/06/24 10:26:01;;;;;;;1.60;1.23;;;31.60;43.60;30.30;97390.00;;;;4991826;28;20632;-87
2023/06/24 10:29:09;;;;;;;1.83;1.67;;;31.60;43.60;30.20;97392.00;;;;4984895;28;20618;-88
2023/06/24 10:31:53;;;;;;;1.63;1.52;;;31.50;43.60;30.10;97391.00;;;;4991669;28;20296;-88
2023/06/24 10:34:32;;;;;;;1.70;1.58;;;31.30;43.10;29.90;97392.00;;;;4992273;28;20202;-89
2023/06/24 10:37:02;;;;;;;1.73;1.63;;;31.20;43.30;29.80;97388.00;;;;4973877;28;20297;-87
2023/06/24 10:39:50;;;;;;;1.73;1.63;;;31.00;43.80;29.70;97387.00;;;;4974230;28;20685;-88
2023/06/24 10:42:41;;;;;;;1.38;1.35;;;30.70;43.20;29.60;97376.00;;;;4982831;28;20281;-88
2023/06/24 10:45:19;;;;;;;1.40;1.30;;;30.60;43.80;29.60;97373.00;;;;4993740;28;20256;-87
2023/06/24 10:47:49;;;;;;;1.30;1.23;;;30.50;44.30;29.60;97372.00;;;;4978264;28;20682;-88
2023/06/24 10:50:19;;;;;;;1.60;1.50;;;30.40;44.50;29.70;97370.00;;;;4993505;28;20229;-87
2023/06/24 10:52:48;;;;;;;1.55;1.45;;;30.40;44.10;29.80;97361.00;;;;4993730;28;20211;-88
2023/06/24 10:55:16;;;;;;;1.73;1.50;;;30.40;43.80;29.90;97361.00;;;;4992793;28;20195;-88
2023/06/24 10:57:45;;;;;;;1.40;1.30;;;30.40;43.90;29.90;97363.00;;;;4993169;28;20179;-88
2023/06/24 11:00:16;;;;;;;1.50;1.40;;;30.50;43.20;30.00;97355.00;;;;4994220;28;20206;-88
2023/06/24 11:02:44;;;;;;;1.40;1.30;;;30.50;42.70;29.90;97349.00;;;;4993127;28;20198;-88
2023/06/24 11:05:11;;;;;;;1.33;1.25;;;30.50;42.50;29.90;97350.00;;;;4993126;28;20297;-88
2023/06/24 11:07:45;;;;;;;1.60;1.50;;;30.40;42.20;29.80;97347.00;;;;4991624;28;20241;-91